createdAt,value
2022-11-21T00:00:46.951Z,1.10
2022-11-21T00:03:14.180Z,1.09
2022-11-21T00:05:42.448Z,1.15
2022-11-21T00:08:10.109Z,1.15
2022-11-21T00:10:37.772Z,1.10
2022-11-21T00:13:05.622Z,1.16
2022-11-21T00:15:33.295Z,1.14
2022-11-21T00:18:02.541Z,1.25
2022-11-21T00:20:29.179Z,1.25
2022-11-21T00:22:55.834Z,1.19
2022-11-21T00:25:22.902Z,1.21
2022-11-21T00:27:49.548Z,1.28
2022-11-21T00:30:16.287Z,1.38
2022-11-21T00:32:42.928Z,1.27
2022-11-21T00:35:09.674Z,1.30
2022-11-21T00:37:36.308Z,1.22
2022-11-21T00:40:03.220Z,1.31
2022-11-21T00:42:29.773Z,1.20
2022-11-21T00:44:56.464Z,1.26
2022-11-21T00:47:23.078Z,1.26
2022-11-21T00:49:49.742Z,1.37
2022-11-21T00:52:17.467Z,1.38
2022-11-21T00:54:44.388Z,1.23
2022-11-21T00:57:11.332Z,1.33
2022-11-21T00:59:37.983Z,1.43
2022-11-21T01:02:05.574Z,1.51
2022-11-21T01:04:33.926Z,1.41
2022-11-21T01:07:00.820Z,1.47
2022-11-21T01:09:28.852Z,1.49
2022-11-21T01:11:56.291Z,1.49
2022-11-21T01:14:23.037Z,1.53
2022-11-21T01:16:49.797Z,1.12
2022-11-21T01:19:16.582Z,1.44
2022-11-21T01:21:43.362Z,1.15
2022-11-21T01:24:11.874Z,0.96
2022-11-21T01:26:41.548Z,1.33
2022-11-21T01:29:09.013Z,1.42
2022-11-21T01:31:36.220Z,1.24
2022-11-21T01:34:03.027Z,1.29
2022-11-21T01:36:31.639Z,1.15
2022-11-21T01:39:00.577Z,1.22
2022-11-21T01:41:33.817Z,1.15
2022-11-21T01:44:01.923Z,1.29
2022-11-21T01:46:28.911Z,1.37
2022-11-21T01:48:58.401Z,1.25
2022-11-21T01:51:32.290Z,1.27
2022-11-21T01:54:03.412Z,1.31
2022-11-21T01:56:32.671Z,1.38
2022-11-21T01:59:01.342Z,1.38
2022-11-21T02:01:28.741Z,1.17
2022-11-21T02:03:56.079Z,1.41
2022-11-21T02:06:23.688Z,1.46
2022-11-21T02:08:50.666Z,1.55
2022-11-21T02:11:27.362Z,1.52
2022-11-21T02:13:54.716Z,1.58
2022-11-21T02:16:21.823Z,1.67
2022-11-21T02:18:48.441Z,1.56
2022-11-21T02:21:26.023Z,1.70
2022-11-21T02:24:12.540Z,1.63
2022-11-21T02:26:39.368Z,1.59
2022-11-21T02:29:06.060Z,1.40
2022-11-21T02:31:32.800Z,1.46
2022-11-21T02:33:59.466Z,1.63
2022-11-21T02:36:38.422Z,1.69
2022-11-21T02:39:11.910Z,1.66
2022-11-21T02:41:51.270Z,1.61
2022-11-21T02:44:48.441Z,1.68
2022-11-21T02:47:15.069Z,1.77
2022-11-21T02:49:48.939Z,1.71
2022-11-21T02:52:15.860Z,1.68
2022-11-21T02:54:42.568Z,1.69
2022-11-21T02:57:09.153Z,1.66
2022-11-21T02:59:35.883Z,1.79
2022-11-21T03:02:02.794Z,1.74
2022-11-21T03:04:29.682Z,1.65
2022-11-21T03:06:59.859Z,1.75
2022-11-21T03:09:26.658Z,1.84
2022-11-21T03:11:53.349Z,1.88
2022-11-21T03:14:20.031Z,1.79
2022-11-21T03:16:46.670Z,1.71
2022-11-21T03:19:13.337Z,1.65
2022-11-21T03:21:40.100Z,1.66
2022-11-21T03:24:09.870Z,1.73
2022-11-21T03:26:36.515Z,1.71
2022-11-21T03:29:03.225Z,1.57
2022-11-21T03:31:29.861Z,1.73
2022-11-21T03:33:56.510Z,1.81
2022-11-21T03:36:23.161Z,1.80
2022-11-21T03:38:49.972Z,1.47
2022-11-21T03:41:31.913Z,1.75
2022-11-21T03:44:03.967Z,1.87
2022-11-21T03:46:32.887Z,1.67
2022-11-21T03:48:59.946Z,1.64
2022-11-21T03:51:27.118Z,1.68
2022-11-21T03:53:53.852Z,1.85
2022-11-21T03:56:20.584Z,1.79
2022-11-21T03:58:47.638Z,1.78
2022-11-21T04:01:15.233Z,1.93
2022-11-21T04:03:45.572Z,1.90
2022-11-21T04:06:14.124Z,1.97
2022-11-21T04:08:40.785Z,1.95
2022-11-21T04:11:07.858Z,1.74
2022-11-21T04:13:34.709Z,1.84
2022-11-21T04:16:01.460Z,1.94
2022-11-21T04:18:28.052Z,1.98
2022-11-21T04:20:58.492Z,1.94
2022-11-21T04:23:25.843Z,1.98
2022-11-21T04:25:52.924Z,1.80
2022-11-21T04:28:19.983Z,1.81
2022-11-21T04:30:52.466Z,1.76
2022-11-21T04:33:21.486Z,1.89
2022-11-21T04:35:48.402Z,1.72
2022-11-21T04:38:18.096Z,1.71
2022-11-21T04:40:45.632Z,1.66
2022-11-21T04:43:12.332Z,1.85
2022-11-21T04:45:39.241Z,1.54
2022-11-21T04:48:06.157Z,1.45
2022-11-21T04:50:33.315Z,1.53
2022-11-21T04:53:00.087Z,1.37
2022-11-21T04:55:30.286Z,1.40
2022-11-21T04:57:57.048Z,1.37
2022-11-21T05:00:24.616Z,1.26
2022-11-21T05:02:51.788Z,1.40
2022-11-21T05:05:18.696Z,1.36
2022-11-21T05:07:45.328Z,1.28
2022-11-21T05:10:12.163Z,1.32
2022-11-21T05:12:57.654Z,1.27
2022-11-21T05:15:26.498Z,1.17
2022-11-21T05:17:53.191Z,1.31
2022-11-21T05:20:19.887Z,1.27
2022-11-21T05:22:51.833Z,1.34
2022-11-21T05:25:18.552Z,1.43
2022-11-21T05:27:45.287Z,1.42
2022-11-21T05:30:15.156Z,1.42
2022-11-21T05:32:43.596Z,1.44
2022-11-21T05:35:10.358Z,1.31
2022-11-21T05:37:37.044Z,1.23
2022-11-21T05:40:03.959Z,1.37
2022-11-21T05:42:49.287Z,1.47
2022-11-21T05:45:16.269Z,1.22
2022-11-21T05:47:42.941Z,0.93
2022-11-21T05:50:09.747Z,0.94
2022-11-21T05:52:36.384Z,1.25
2022-11-21T05:55:03.175Z,1.23
2022-11-21T05:57:31.136Z,1.24
2022-11-21T06:00:00.792Z,1.29
2022-11-21T06:02:46.228Z,1.11
2022-11-21T06:05:12.990Z,1.07
2022-11-21T06:07:39.687Z,1.22
2022-11-21T06:10:06.656Z,1.30
2022-11-21T06:12:33.379Z,1.51
2022-11-21T06:15:00.137Z,1.40
2022-11-21T06:17:26.969Z,1.33
2022-11-21T06:19:53.671Z,1.53
2022-11-21T06:22:20.428Z,1.54
2022-11-21T06:24:47.119Z,1.30
2022-11-21T06:27:13.716Z,1.47
2022-11-21T06:29:40.387Z,1.59
2022-11-21T06:32:06.996Z,1.60
2022-11-21T06:34:33.751Z,1.66
2022-11-21T06:37:00.822Z,1.48
2022-11-21T06:39:27.506Z,1.70
2022-11-21T06:41:54.215Z,1.71
2022-11-21T06:44:20.954Z,1.88
2022-11-21T06:46:51.167Z,1.80
2022-11-21T06:49:18.249Z,1.67
2022-11-21T06:51:44.891Z,1.68
2022-11-21T06:54:16.336Z,1.72
2022-11-21T06:56:43.966Z,1.64
2022-11-21T06:59:10.986Z,1.59
2022-11-21T07:01:37.731Z,1.42
2022-11-21T07:04:04.586Z,1.30
2022-11-21T07:06:31.265Z,1.43
2022-11-21T07:09:31.135Z,1.51
2022-11-21T07:11:44.591Z,1.49
2022-11-21T07:14:11.285Z,1.43
2022-11-21T07:16:38.203Z,1.35
2022-11-21T07:19:05.058Z,1.66
2022-11-21T07:21:31.677Z,1.42
2022-11-21T07:23:58.625Z,1.20
2022-11-21T07:26:25.228Z,1.54
2022-11-21T07:28:55.010Z,1.74
2022-11-21T07:31:21.725Z,1.46
2022-11-21T07:33:48.415Z,1.29
2022-11-21T07:36:15.115Z,1.49
2022-11-21T07:38:42.243Z,1.39
2022-11-21T07:41:09.703Z,1.13
2022-11-21T07:43:36.450Z,0.88
2022-11-21T07:46:03.141Z,1.06
2022-11-21T07:48:29.806Z,0.87
2022-11-21T07:50:59.342Z,0.90
2022-11-21T07:53:25.981Z,0.98
2022-11-21T07:55:52.717Z,1.22
2022-11-21T07:58:19.612Z,1.18
2022-11-21T08:00:46.283Z,1.11
2022-11-21T08:03:13.535Z,0.82
2022-11-21T08:05:42.070Z,1.02
2022-11-21T08:08:09.971Z,1.12
2022-11-21T08:10:43.286Z,1.21
2022-11-21T08:13:10.636Z,1.23
2022-11-21T08:15:37.745Z,1.29
2022-11-21T08:18:12.513Z,0.96
2022-11-21T08:20:39.589Z,1.05
2022-11-21T08:23:06.873Z,0.66
2022-11-21T08:25:34.915Z,0.93
2022-11-21T08:28:02.902Z,0.81
2022-11-21T08:30:29.943Z,0.93
2022-11-21T08:32:58.787Z,0.79
2022-11-21T08:35:26.572Z,0.59
2022-11-21T08:38:00.130Z,0.82
2022-11-21T08:40:28.420Z,0.96
2022-11-21T08:43:21.401Z,1.24
2022-11-21T08:45:48.056Z,1.08
2022-11-21T08:48:14.713Z,0.99
2022-11-21T08:50:41.376Z,0.79
2022-11-21T08:53:08.076Z,0.90
2022-11-21T08:55:34.803Z,0.85
2022-11-21T08:58:01.496Z,0.89
2022-11-21T09:00:28.393Z,1.05
2022-11-21T09:02:55.274Z,0.62
2022-11-21T09:05:22.396Z,0.51
2022-11-21T09:07:49.213Z,0.33
2022-11-21T09:10:16.229Z,0.34
2022-11-21T09:12:43.389Z,0.61
2022-11-21T09:15:29.841Z,0.84
2022-11-21T09:18:03.511Z,0.73
2022-11-21T09:20:34.852Z,0.83
2022-11-21T09:23:13.337Z,0.92
2022-11-21T09:25:40.105Z,1.08
2022-11-21T09:28:09.002Z,0.75
2022-11-21T09:30:36.066Z,1.05
2022-11-21T09:33:06.870Z,1.21
2022-11-21T09:35:33.850Z,1.24
2022-11-21T09:38:00.649Z,1.38
2022-11-21T09:40:29.542Z,1.33
2022-11-21T09:42:59.143Z,0.92
2022-11-21T09:45:42.296Z,0.51
2022-11-21T09:48:16.113Z,0.31
2022-11-21T09:50:53.805Z,0.17
2022-11-21T09:53:27.715Z,0.33
2022-11-21T09:56:11.688Z,0.37
2022-11-21T09:58:49.065Z,0.51
2022-11-21T10:01:16.937Z,0.87
2022-11-21T10:03:48.854Z,1.21
2022-11-21T10:06:27.105Z,1.09
2022-11-21T10:09:00.802Z,1.02
2022-11-21T10:12:20.875Z,1.02
2022-11-21T10:15:07.781Z,1.18
2022-11-21T10:17:41.911Z,0.94
2022-11-21T10:20:40.484Z,1.14
2022-11-21T10:23:42.668Z,1.47
2022-11-21T10:26:17.276Z,1.04
2022-11-21T10:28:59.680Z,1.02
2022-11-21T10:31:27.259Z,1.19
2022-11-21T10:33:54.587Z,1.27
2022-11-21T10:36:47.443Z,1.49
2022-11-21T10:39:19.417Z,1.24
2022-11-21T10:41:59.203Z,1.40
2022-11-21T10:44:48.806Z,1.62
2022-11-21T10:47:27.848Z,1.59
2022-11-21T10:50:06.476Z,1.62
2022-11-21T10:53:01.942Z,1.65
2022-11-21T10:55:28.680Z,1.75
2022-11-21T10:57:55.474Z,1.39
2022-11-21T11:00:24.771Z,1.14
2022-11-21T11:02:57.856Z,1.01
2022-11-21T11:05:38.057Z,1.19
2022-11-21T11:08:12.693Z,0.98
2022-11-21T11:10:44.340Z,1.43
2022-11-21T11:13:50.650Z,1.59
2022-11-21T11:16:21.339Z,1.29
2022-11-21T11:18:57.426Z,1.09
2022-11-21T11:21:44.322Z,1.35
2022-11-21T11:24:10.880Z,1.44
2022-11-21T11:26:49.785Z,1.13
2022-11-21T11:29:21.781Z,1.10
2022-11-21T11:31:57.646Z,1.12
2022-11-21T11:34:27.748Z,1.28
2022-11-21T11:36:55.692Z,1.10
2022-11-21T11:39:37.559Z,1.46
2022-11-21T11:42:34.189Z,1.67
2022-11-21T11:45:22.580Z,1.07
2022-11-21T11:48:13.978Z,0.88
2022-11-21T11:50:48.459Z,1.01
2022-11-21T11:53:23.854Z,1.32
2022-11-21T11:56:02.693Z,1.51
2022-11-21T11:58:53.417Z,1.48
2022-11-21T12:01:39.671Z,1.46
2022-11-21T12:04:13.001Z,1.47
2022-11-21T12:08:05.945Z,1.45
2022-11-21T12:10:01.908Z,1.80
2022-11-21T12:12:35.817Z,1.95
2022-11-21T12:15:45.381Z,1.32
2022-11-21T12:18:21.035Z,1.26
2022-11-21T12:21:02.876Z,1.47
2022-11-21T12:23:41.209Z,1.32
2022-11-21T12:26:40.384Z,1.41
2022-11-21T12:29:10.404Z,1.14
2022-11-21T12:31:44.444Z,1.25
2022-11-21T12:34:51.765Z,1.62
2022-11-21T12:37:50.202Z,1.44
2022-11-21T12:40:41.583Z,1.66
2022-11-21T12:43:18.714Z,1.89
2022-11-21T12:46:02.317Z,1.92
2022-11-21T12:49:12.918Z,2.23
2022-11-21T12:52:36.697Z,2.17
2022-11-21T12:55:12.159Z,2.08
2022-11-21T12:57:56.735Z,2.05
2022-11-21T13:00:49.066Z,2.24
2022-11-21T13:03:42.421Z,2.10
2022-11-21T13:06:19.719Z,2.20
2022-11-21T13:08:48.716Z,2.30
2022-11-21T13:11:47.363Z,2.40
2022-11-21T13:14:32.849Z,2.21
2022-11-21T13:17:11.117Z,1.95
2022-11-21T13:19:43.267Z,2.25
2022-11-21T13:22:36.304Z,2.42
2022-11-21T13:25:09.125Z,2.27
2022-11-21T13:27:39.157Z,2.22
2022-11-21T13:30:09.655Z,2.21
2022-11-21T13:32:44.721Z,2.36
2022-11-21T13:35:14.979Z,2.07
2022-11-21T13:38:01.313Z,2.36
2022-11-21T13:40:39.016Z,2.60
2022-11-21T13:43:31.348Z,2.48
2022-11-21T13:45:56.725Z,2.50
2022-11-21T13:48:34.790Z,2.59
2022-11-21T13:51:33.014Z,2.15
2022-11-21T13:54:17.979Z,2.09
2022-11-21T13:57:02.979Z,2.43
2022-11-21T13:59:47.050Z,2.53
2022-11-21T14:02:32.112Z,2.64
2022-11-21T14:05:04.411Z,2.66
2022-11-21T14:07:33.307Z,2.69
2022-11-21T14:10:02.128Z,2.67
2022-11-21T14:12:38.326Z,2.54
2022-11-21T14:15:24.026Z,2.32
2022-11-21T14:17:58.602Z,2.69
2022-11-21T14:20:27.824Z,2.69
2022-11-21T14:23:03.783Z,2.68
2022-11-21T14:25:33.445Z,2.64
2022-11-21T14:28:00.586Z,2.67
2022-11-21T14:30:29.848Z,2.63
2022-11-21T14:32:56.643Z,2.77
2022-11-21T14:35:24.308Z,2.81
2022-11-21T14:37:51.367Z,2.69
2022-11-21T14:40:23.073Z,2.64
2022-11-21T14:42:50.067Z,2.55
2022-11-21T14:45:19.946Z,2.47
2022-11-21T14:47:53.576Z,2.45
2022-11-21T14:50:24.766Z,2.36
2022-11-21T14:52:57.390Z,2.45
2022-11-21T14:55:31.542Z,2.53
2022-11-21T14:58:00.851Z,2.54
2022-11-21T15:00:58.120Z,2.41
2022-11-21T15:03:23.539Z,2.52
2022-11-21T15:06:05.045Z,2.38
2022-11-21T15:09:14.506Z,2.45
2022-11-21T15:11:21.862Z,2.22
2022-11-21T15:14:14.439Z,2.23
2022-11-21T15:16:38.072Z,2.16
2022-11-21T15:19:11.285Z,2.21
2022-11-21T15:21:44.451Z,2.31
2022-11-21T15:24:26.892Z,2.36
2022-11-21T15:26:53.520Z,2.28
2022-11-21T15:29:21.273Z,2.42
2022-11-21T15:32:07.434Z,2.34
2022-11-21T15:34:35.776Z,2.26
2022-11-21T15:37:13.304Z,2.40
2022-11-21T15:39:45.094Z,2.42
2022-11-21T15:42:44.264Z,2.38
2022-11-21T15:45:24.015Z,2.42
2022-11-21T15:47:51.083Z,2.42
2022-11-21T15:50:18.011Z,2.39
2022-11-21T15:52:50.134Z,2.45
2022-11-21T15:55:26.420Z,2.51
2022-11-21T15:57:53.336Z,2.25
2022-11-21T16:00:20.169Z,2.23
2022-11-21T16:02:47.441Z,2.22
2022-11-21T16:05:15.553Z,2.21
2022-11-21T16:07:42.533Z,2.23
2022-11-21T16:10:18.001Z,2.25
2022-11-21T16:12:48.494Z,2.10
2022-11-21T16:15:15.489Z,2.16
2022-11-21T16:17:42.344Z,2.16
2022-11-21T16:20:09.551Z,2.18
2022-11-21T16:22:44.185Z,2.13
2022-11-21T16:25:13.873Z,2.09
2022-11-21T16:27:40.669Z,2.10
2022-11-21T16:30:08.023Z,1.94
2022-11-21T16:32:34.882Z,1.99
2022-11-21T16:35:01.705Z,2.02
2022-11-21T16:37:28.666Z,1.97
2022-11-21T16:39:55.392Z,2.01
2022-11-21T16:42:22.283Z,1.79
2022-11-21T16:44:49.268Z,1.88
2022-11-21T16:47:15.987Z,1.90
2022-11-21T16:49:48.423Z,1.88
2022-11-21T16:52:24.065Z,1.85
2022-11-21T16:54:50.862Z,1.80
2022-11-21T16:57:17.582Z,1.84
2022-11-21T16:59:44.321Z,1.86
2022-11-21T17:02:11.130Z,1.67
2022-11-21T17:04:38.047Z,1.67
2022-11-21T17:07:04.909Z,1.65
2022-11-21T17:09:31.630Z,1.67
2022-11-21T17:11:59.405Z,1.55
2022-11-21T17:14:26.716Z,1.55
2022-11-21T17:16:53.680Z,1.43
2022-11-21T17:19:20.837Z,1.55
2022-11-21T17:21:47.679Z,1.45
2022-11-21T17:24:14.526Z,1.43
2022-11-21T17:26:41.263Z,1.48
2022-11-21T17:29:07.967Z,1.46
2022-11-21T17:31:34.913Z,1.39
2022-11-21T17:34:01.967Z,1.49
2022-11-21T17:36:30.136Z,1.30
2022-11-21T17:38:57.612Z,1.43
2022-11-21T17:41:26.172Z,1.46
2022-11-21T17:43:58.391Z,1.31
2022-11-21T17:46:26.416Z,1.28
2022-11-21T17:48:57.508Z,1.37
2022-11-21T17:51:34.510Z,1.23
2022-11-21T17:54:01.957Z,1.30
2022-11-21T17:56:31.662Z,1.41
2022-11-21T17:58:58.566Z,1.44
2022-11-21T18:01:25.683Z,1.41
2022-11-21T18:03:59.864Z,1.43
2022-11-21T18:06:28.647Z,1.43
2022-11-21T18:08:57.168Z,1.45
2022-11-21T18:11:24.568Z,1.43
2022-11-21T18:13:51.556Z,1.46
2022-11-21T18:16:20.941Z,1.45
2022-11-21T18:18:49.571Z,1.32
2022-11-21T18:21:18.799Z,1.36
2022-11-21T18:23:47.169Z,1.43
2022-11-21T18:26:23.177Z,1.38
2022-11-21T18:29:13.454Z,1.42
2022-11-21T18:31:44.142Z,1.52
2022-11-21T18:34:12.714Z,1.60
2022-11-21T18:36:39.577Z,1.66
2022-11-21T18:39:14.646Z,1.50
2022-11-21T18:41:42.380Z,1.63
2022-11-21T18:44:10.159Z,1.63
2022-11-21T18:46:38.114Z,1.54
2022-11-21T18:49:06.840Z,1.52
2022-11-21T18:51:34.749Z,1.45
2022-11-21T18:54:05.439Z,1.26
2022-11-21T18:56:32.447Z,1.27
2022-11-21T18:58:59.549Z,1.21
2022-11-21T19:01:28.136Z,1.27
2022-11-21T19:03:55.763Z,1.18
2022-11-21T19:06:23.785Z,1.46
2022-11-21T19:08:53.271Z,1.20
2022-11-21T19:11:21.281Z,1.23
2022-11-21T19:13:49.009Z,1.30
2022-11-21T19:16:18.497Z,1.33
2022-11-21T19:18:55.314Z,1.36
2022-11-21T19:21:36.700Z,1.30
2022-11-21T19:24:03.568Z,1.46
2022-11-21T19:26:31.644Z,1.47
2022-11-21T19:28:58.990Z,1.41
2022-11-21T19:31:26.129Z,1.31
2022-11-21T19:33:53.497Z,1.23
2022-11-21T19:36:22.113Z,1.28
2022-11-21T19:38:51.451Z,1.48
2022-11-21T19:41:20.090Z,1.49
2022-11-21T19:43:51.467Z,1.38
2022-11-21T19:46:21.320Z,1.49
2022-11-21T19:48:49.639Z,1.53
2022-11-21T19:51:18.001Z,1.37
2022-11-21T19:53:46.423Z,1.47
2022-11-21T19:56:18.274Z,1.48
2022-11-21T19:58:45.600Z,1.45
2022-11-21T20:01:20.463Z,1.42
2022-11-21T20:03:49.669Z,1.42
2022-11-21T20:06:24.451Z,1.39
2022-11-21T20:08:58.843Z,1.44
2022-11-21T20:11:26.642Z,1.31
2022-11-21T20:13:53.766Z,1.23
2022-11-21T20:16:32.456Z,1.34
2022-11-21T20:19:02.333Z,1.50
2022-11-21T20:21:29.781Z,1.52
2022-11-21T20:23:56.995Z,1.59
2022-11-21T20:26:24.883Z,1.54
2022-11-21T20:28:52.076Z,1.56
2022-11-21T20:31:24.916Z,1.54
2022-11-21T20:33:53.660Z,1.47
2022-11-21T20:36:22.625Z,1.62
2022-11-21T20:38:51.138Z,1.53
2022-11-21T20:41:19.241Z,1.65
2022-11-21T20:44:26.736Z,1.65
2022-11-21T20:46:34.463Z,1.71
2022-11-21T20:49:02.268Z,1.71
2022-11-21T20:54:16.300Z,1.66
2022-11-21T20:56:44.499Z,1.72
2022-11-21T20:59:11.437Z,1.74
2022-11-21T21:01:38.476Z,1.93
2022-11-21T21:04:05.516Z,1.76
2022-11-21T21:06:32.494Z,1.72
2022-11-21T21:09:00.477Z,1.82
2022-11-21T21:14:14.561Z,1.83
2022-11-21T21:16:41.442Z,1.83
2022-11-21T21:19:08.232Z,1.85
2022-11-21T21:21:35.008Z,1.85
2022-11-21T21:24:06.776Z,1.81
2022-11-21T21:26:41.744Z,1.79
2022-11-21T21:29:11.086Z,1.88
2022-11-21T21:31:37.846Z,1.87
2022-11-21T21:34:04.814Z,1.73
2022-11-21T21:36:32.286Z,1.90
2022-11-21T21:39:00.855Z,1.81
2022-11-21T21:41:30.033Z,1.96
2022-11-21T21:43:58.007Z,1.86
2022-11-21T21:46:27.339Z,1.89
2022-11-21T21:48:56.254Z,1.89
2022-11-21T21:51:25.077Z,1.77
2022-11-21T21:53:52.901Z,1.94
2022-11-21T21:56:20.851Z,1.91
2022-11-21T21:58:48.683Z,1.82
2022-11-21T22:01:20.928Z,2.03
2022-11-21T22:03:48.192Z,2.13
2022-11-21T22:06:18.935Z,1.95
2022-11-21T22:08:47.252Z,2.01
2022-11-21T22:11:16.208Z,1.90
2022-11-21T22:13:44.444Z,1.87
2022-11-21T22:16:12.383Z,1.94
2022-11-21T22:18:39.708Z,1.97
2022-11-21T22:21:24.672Z,1.93
2022-11-21T22:24:23.085Z,2.02
2022-11-21T22:26:38.113Z,2.02
2022-11-21T22:29:04.881Z,1.98
2022-11-21T22:31:31.631Z,2.05
2022-11-21T22:33:58.846Z,1.91
2022-11-21T22:36:25.840Z,2.01
2022-11-21T22:38:53.943Z,1.96
2022-11-21T22:41:22.493Z,1.98
2022-11-21T22:43:51.053Z,1.90
2022-11-21T22:46:18.155Z,1.84
2022-11-21T22:48:44.889Z,1.93
2022-11-21T22:51:19.344Z,1.84
2022-11-21T22:53:47.033Z,1.74
2022-11-21T22:56:16.806Z,1.77
2022-11-21T22:58:45.784Z,1.83
2022-11-21T23:01:14.803Z,1.84
2022-11-21T23:03:42.807Z,1.85
2022-11-21T23:06:18.747Z,1.83
2022-11-21T23:08:45.816Z,1.72
2022-11-21T23:11:31.628Z,1.68
2022-11-21T23:14:00.921Z,1.57
2022-11-21T23:16:28.754Z,1.54
2022-11-21T23:18:56.815Z,1.69
2022-11-21T23:21:23.850Z,1.53
2022-11-21T23:23:50.590Z,1.70
2022-11-21T23:26:17.261Z,1.55
2022-11-21T23:28:43.909Z,1.64
2022-11-21T23:31:10.761Z,1.54
2022-11-21T23:33:37.612Z,1.68
2022-11-21T23:36:04.695Z,1.71
2022-11-21T23:38:31.507Z,1.83
2022-11-21T23:40:58.251Z,1.69
2022-11-21T23:43:24.973Z,1.63
2022-11-21T23:45:52.552Z,1.58
2022-11-21T23:48:19.873Z,1.49
2022-11-21T23:50:47.455Z,1.64
2022-11-21T23:53:14.367Z,1.74
2022-11-21T23:55:44.494Z,1.60
2022-11-21T23:58:11.809Z,1.62
